Time;durP1;ratioP1;P1;durP2;ratioP2;P2;SDS_P1;SDS_P2;PMS_P1;PMS_P2;Temp;Humidity;BMP_temperature;BMP_pressure;BME280_temperature;BME280_humidity;BME280_pressure;Samples;Min_cycle;Max_cycle;Signal;HPM_P1;HPM_P2
2022/08/21 00:00:51;;;;;;;11.68;9.75;;;15.70;99.90;;;;;;5024614;28;20032;-74
2022/08/21 00:03:17;;;;;;;13.45;9.43;;;15.60;99.90;;;;;;5018795;28;20109;-75
2022/08/21 00:05:49;;;;;;;12.60;9.63;;;15.80;99.90;;;;;;5017411;28;20033;-75
2022/08/21 00:08:20;;;;;;;11.80;9.00;;;15.90;99.90;;;;;;5014483;28;20017;-77
2022/08/21 00:10:46;;;;;;;22.90;12.50;;;15.80;99.90;;;;;;5027111;28;20021;-76
2022/08/21 00:13:13;;;;;;;17.33;11.70;;;15.90;99.90;;;;;;5022620;28;20399;-76
2022/08/21 00:15:39;;;;;;;13.27;10.00;;;15.70;99.90;;;;;;5020222;28;20085;-76
2022/08/21 00:18:07;;;;;;;13.02;10.10;;;15.70;99.90;;;;;;5025123;28;20029;-76
2022/08/21 00:20:34;;;;;;;13.50;9.88;;;15.70;99.90;;;;;;5028101;28;20032;-74
2022/08/21 00:23:00;;;;;;;10.65;8.98;;;15.70;99.90;;;;;;5024702;28;20026;-74
2022/08/21 00:25:26;;;;;;;14.48;10.02;;;15.80;99.90;;;;;;5021281;28;20471;-75
2022/08/21 00:27:53;;;;;;;13.80;10.65;;;15.80;99.90;;;;;;5033087;28;20480;-75
2022/08/21 00:30:19;;;;;;;13.38;10.20;;;15.70;99.90;;;;;;5019854;28;20033;-76
2022/08/21 00:32:46;;;;;;;11.07;9.55;;;15.50;99.90;;;;;;5024385;28;20018;-76
2022/08/21 00:35:16;;;;;;;10.93;9.30;;;15.50;99.90;;;;;;5026767;28;20332;-75
2022/08/21 00:37:42;;;;;;;11.13;9.05;;;15.50;99.90;;;;;;5025485;28;20256;-76
2022/08/21 00:40:12;;;;;;;11.57;9.57;;;15.70;99.90;;;;;;5018719;28;20041;-76
2022/08/21 00:42:38;;;;;;;11.55;8.52;;;15.70;99.90;;;;;;5022550;28;20439;-75
2022/08/21 00:45:06;;;;;;;11.43;9.20;;;15.50;99.90;;;;;;5031291;28;20017;-77
2022/08/21 00:47:31;;;;;;;13.15;9.00;;;15.50;99.90;;;;;;5023614;28;20033;-76
2022/08/21 00:49:57;;;;;;;9.48;8.38;;;15.50;99.90;;;;;;5028087;28;20025;-75
2022/08/21 00:52:27;;;;;;;14.80;10.25;;;15.50;99.90;;;;;;5014537;28;20097;-75
2022/08/21 00:54:54;;;;;;;13.43;9.18;;;15.40;99.90;;;;;;5027539;28;20026;-75
2022/08/21 00:57:26;;;;;;;26.52;9.45;;;15.50;99.90;;;;;;5025543;28;20076;-76
2022/08/21 00:59:55;;;;;;;13.25;9.52;;;15.10;99.90;;;;;;5021222;28;20497;-77
2022/08/21 01:02:21;;;;;;;10.23;8.90;;;14.90;99.90;;;;;;5022434;28;20034;-77
2022/08/21 01:04:47;;;;;;;11.70;8.93;;;15.00;99.90;;;;;;5033188;28;20084;-77
2022/08/21 01:07:13;;;;;;;9.57;8.57;;;15.20;99.90;;;;;;5020788;28;20057;-77
2022/08/21 01:09:40;;;;;;;10.00;8.98;;;15.20;99.90;;;;;;5027597;28;20046;-76
2022/08/21 01:12:06;;;;;;;12.38;9.15;;;15.30;99.90;;;;;;5026145;28;20024;-76
2022/08/21 01:14:32;;;;;;;16.88;10.60;;;15.30;99.90;;;;;;5018943;28;20036;-77
2022/08/21 01:17:02;;;;;;;17.83;10.63;;;15.60;99.90;;;;;;5021837;28;20091;-78
2022/08/21 01:19:28;;;;;;;8.65;7.75;;;15.30;99.90;;;;;;5013718;28;20613;-76
2022/08/21 01:21:54;;;;;;;8.98;7.80;;;15.10;99.90;;;;;;5026112;28;20104;-77
2022/08/21 01:24:21;;;;;;;9.73;7.80;;;15.20;99.90;;;;;;5014805;28;20540;-78
2022/08/21 01:26:47;;;;;;;10.45;8.55;;;15.10;99.90;;;;;;5012617;28;20018;-83
2022/08/21 01:29:35;;;;;;;13.73;9.35;;;15.20;99.90;;;;;;5026775;28;20037;-78
2022/08/21 01:32:09;;;;;;;13.40;9.40;;;15.00;99.90;;;;;;5009858;28;20383;-78
2022/08/21 01:34:38;;;;;;;20.38;10.52;;;15.20;99.90;;;;;;5023479;28;20047;-75
2022/08/21 01:37:04;;;;;;;13.40;10.13;;;15.00;99.90;;;;;;5019953;28;20033;-75
2022/08/21 01:39:31;;;;;;;11.95;9.23;;;14.90;99.90;;;;;;5033355;28;20029;-76
2022/08/21 01:41:56;;;;;;;13.27;9.73;;;15.00;99.90;;;;;;5015304;28;20080;-75
2022/08/21 01:44:23;;;;;;;13.32;9.82;;;15.00;99.90;;;;;;5011990;28;20439;-76
2022/08/21 01:46:50;;;;;;;18.45;11.18;;;15.00;99.90;;;;;;5027109;28;20071;-76
2022/08/21 01:49:15;;;;;;;13.45;9.70;;;14.90;99.90;;;;;;5020639;28;20112;-77
2022/08/21 01:51:41;;;;;;;11.25;8.60;;;14.90;99.90;;;;;;5026680;28;20100;-77
2022/08/21 01:54:07;;;;;;;13.45;8.77;;;14.90;99.90;;;;;;5024239;28;20088;-75
2022/08/21 01:56:42;;;;;;;12.02;8.77;;;15.00;99.90;;;;;;5015114;28;20026;-75
2022/08/21 01:59:08;;;;;;;11.27;8.38;;;15.00;99.90;;;;;;5012943;28;20026;-76
2022/08/21 02:01:34;;;;;;;9.52;8.10;;;15.20;99.90;;;;;;5025095;28;20026;-76
2022/08/21 02:04:00;;;;;;;11.32;8.70;;;15.20;99.90;;;;;;5024545;28;20104;-76
2022/08/21 02:06:26;;;;;;;11.95;8.50;;;15.10;99.90;;;;;;5019313;28;20029;-76
2022/08/21 02:08:52;;;;;;;11.25;8.45;;;15.00;99.90;;;;;;5020949;28;20144;-76
2022/08/21 02:11:19;;;;;;;11.32;8.48;;;15.10;99.90;;;;;;5026199;28;20109;-77
2022/08/21 02:13:44;;;;;;;14.57;9.68;;;15.10;99.90;;;;;;5024675;28;20438;-78
2022/08/21 02:16:11;;;;;;;14.27;9.50;;;15.00;99.90;;;;;;5026624;28;20124;-79
2022/08/21 02:18:36;;;;;;;12.32;9.07;;;14.70;99.90;;;;;;5023337;28;20048;-76
2022/08/21 02:21:03;;;;;;;9.05;7.65;;;14.70;99.90;;;;;;5019056;28;20135;-77
2022/08/21 02:23:29;;;;;;;16.33;10.55;;;14.90;99.90;;;;;;5020895;28;20033;-77
2022/08/21 02:25:57;;;;;;;14.48;10.20;;;15.00;99.90;;;;;;5024478;28;20026;-77
2022/08/21 02:28:23;;;;;;;10.52;7.88;;;14.90;99.90;;;;;;5024216;28;20025;-76
2022/08/21 02:30:50;;;;;;;9.63;8.27;;;14.90;99.90;;;;;;5018255;28;20030;-77
2022/08/21 02:33:16;;;;;;;10.98;9.18;;;14.90;99.90;;;;;;5019625;28;20091;-77
2022/08/21 02:35:43;;;;;;;14.25;8.85;;;15.00;99.90;;;;;;5024702;28;20036;-76
2022/08/21 02:38:12;;;;;;;13.43;9.43;;;15.00;99.90;;;;;;5022807;28;20025;-76
2022/08/21 02:40:40;;;;;;;15.18;10.75;;;15.10;99.90;;;;;;5024902;28;20029;-76
2022/08/21 02:43:06;;;;;;;12.32;8.95;;;15.00;99.90;;;;;;5025840;28;20025;-76
2022/08/21 02:45:34;;;;;;;14.95;10.63;;;15.10;99.90;;;;;;5018852;28;20057;-76
2022/08/21 02:48:04;;;;;;;18.15;10.90;;;15.10;99.90;;;;;;5018713;28;20026;-78
2022/08/21 02:50:36;;;;;;;18.17;11.90;;;15.20;99.90;;;;;;5022734;28;20026;-79
2022/08/21 02:53:03;;;;;;;17.05;10.77;;;15.10;99.90;;;;;;5024742;28;20450;-78
2022/08/21 02:55:30;;;;;;;17.42;11.73;;;14.80;99.90;;;;;;5020014;28;20036;-78
2022/08/21 02:57:57;;;;;;;20.23;12.27;;;15.00;99.90;;;;;;5017160;28;20025;-77
2022/08/21 03:00:25;;;;;;;23.67;11.27;;;15.20;99.90;;;;;;5022683;28;20057;-76
2022/08/21 03:02:51;;;;;;;28.80;10.38;;;15.00;99.90;;;;;;5024053;28;20030;-79
2022/08/21 03:05:18;;;;;;;134.75;16.15;;;15.00;99.90;;;;;;5020407;28;20026;-78
2022/08/21 03:07:46;;;;;;;234.82;22.25;;;15.00;99.90;;;;;;5017232;28;20514;-78
2022/08/21 03:10:11;;;;;;;61.95;15.43;;;14.90;99.90;;;;;;5021065;28;20403;-79
2022/08/21 03:12:37;;;;;;;51.58;15.88;;;15.00;99.90;;;;;;5024580;28;20033;-78
2022/08/21 03:15:09;;;;;;;24.30;12.30;;;14.70;99.90;;;;;;5023255;28;20071;-78
2022/08/21 03:17:35;;;;;;;18.20;11.80;;;14.70;99.90;;;;;;5016648;28;20030;-78
2022/08/21 03:20:01;;;;;;;52.80;11.98;;;14.80;99.90;;;;;;5013916;28;20136;-78
2022/08/21 03:22:27;;;;;;;26.90;9.90;;;14.70;99.90;;;;;;5024886;28;20029;-77
2022/08/21 03:24:53;;;;;;;67.88;11.75;;;15.00;99.90;;;;;;5025613;28;20026;-80
2022/08/21 03:27:19;;;;;;;46.42;12.15;;;14.80;99.90;;;;;;5019140;28;20017;-79
2022/08/21 03:29:45;;;;;;;37.55;12.85;;;14.80;99.90;;;;;;5022365;28;20022;-78
2022/08/21 03:32:11;;;;;;;66.22;12.23;;;14.80;99.90;;;;;;5025704;28;20037;-78
2022/08/21 03:34:38;;;;;;;97.65;14.02;;;14.80;99.90;;;;;;5021685;28;20111;-76
2022/08/21 03:37:06;;;;;;;86.72;12.55;;;14.90;99.90;;;;;;5017681;28;20025;-78
2022/08/21 03:39:32;;;;;;;351.33;20.40;;;14.90;99.90;;;;;;5030927;28;20542;-77
2022/08/21 03:41:58;;;;;;;192.38;14.90;;;14.70;99.90;;;;;;5031929;28;20033;-77
2022/08/21 03:44:23;;;;;;;167.73;14.05;;;14.80;99.90;;;;;;5023138;28;20033;-78
2022/08/21 03:46:49;;;;;;;205.65;16.70;;;14.50;99.90;;;;;;5031945;28;20022;-80
2022/08/21 03:49:15;;;;;;;118.60;16.23;;;14.50;99.90;;;;;;5019424;28;20018;-73
2022/08/21 03:51:40;;;;;;;106.82;11.68;;;14.40;99.90;;;;;;5019819;28;20102;-74
2022/08/21 03:54:06;;;;;;;226.68;18.85;;;14.40;99.90;;;;;;5022842;28;20396;-74
2022/08/21 03:56:32;;;;;;;80.25;10.52;;;14.10;99.90;;;;;;5028454;28;20033;-74
2022/08/21 03:58:57;;;;;;;228.73;17.02;;;14.20;99.90;;;;;;5026063;28;20068;-74
2022/08/21 04:01:23;;;;;;;98.68;11.13;;;14.30;99.90;;;;;;5016140;28;20053;-74
2022/08/21 04:03:49;;;;;;;76.05;10.90;;;14.30;99.90;;;;;;5015053;28;20467;-74
2022/08/21 04:06:14;;;;;;;105.18;10.65;;;14.40;99.90;;;;;;5015074;28;20081;-74
2022/08/21 04:08:42;;;;;;;106.25;10.52;;;14.40;99.90;;;;;;5025468;28;20052;-74
2022/08/21 04:11:10;;;;;;;240.80;17.48;;;14.70;99.90;;;;;;5030759;28;20026;-74
2022/08/21 04:13:36;;;;;;;205.43;21.45;;;14.60;99.90;;;;;;5015047;28;20022;-74
2022/08/21 04:16:02;;;;;;;181.38;15.60;;;14.30;99.90;;;;;;5017955;28;20446;-76
2022/08/21 04:18:27;;;;;;;449.75;26.20;;;14.30;99.90;;;;;;5023525;28;20034;-75
2022/08/21 04:20:55;;;;;;;223.63;16.98;;;14.30;99.90;;;;;;5028290;28;20113;-75
2022/08/21 04:23:23;;;;;;;608.75;33.85;;;14.50;99.90;;;;;;5026338;28;20032;-75
2022/08/21 04:25:49;;;;;;;255.15;21.10;;;14.30;99.90;;;;;;5019930;28;20067;-76
2022/08/21 04:28:15;;;;;;;163.15;13.23;;;14.20;99.90;;;;;;5022768;28;20101;-74
2022/08/21 04:30:41;;;;;;;360.83;24.95;;;14.30;99.90;;;;;;5013515;28;20036;-75
2022/08/21 04:33:06;;;;;;;203.85;14.80;;;14.30;99.90;;;;;;5014888;28;20022;-77
2022/08/21 04:35:32;;;;;;;385.27;25.10;;;14.40;99.90;;;;;;5026813;28;20030;-75
2022/08/21 04:37:58;;;;;;;289.75;18.23;;;14.30;99.90;;;;;;5025688;28;20034;-76
2022/08/21 04:40:26;;;;;;;244.57;15.55;;;14.30;99.90;;;;;;5021392;28;20061;-76
2022/08/21 04:42:53;;;;;;;43.95;10.10;;;14.40;99.90;;;;;;5022349;28;20428;-75
2022/08/21 04:45:22;;;;;;;209.70;17.02;;;14.60;99.90;;;;;;5027831;28;20472;-75
2022/08/21 04:47:52;;;;;;;460.65;28.02;;;14.60;99.90;;;;;;5026762;28;20064;-74
2022/08/21 04:50:19;;;;;;;151.10;14.38;;;14.40;99.90;;;;;;5014481;28;20496;-74
2022/08/21 04:52:46;;;;;;;281.23;20.52;;;14.50;99.90;;;;;;5014106;28;20033;-73
2022/08/21 04:55:12;;;;;;;222.88;15.93;;;14.40;99.90;;;;;;5012450;28;20606;-76
2022/08/21 04:57:39;;;;;;;509.17;27.00;;;14.50;99.90;;;;;;5026924;28;20026;-76
2022/08/21 05:00:06;;;;;;;249.68;18.15;;;14.60;99.90;;;;;;5019978;28;20026;-76
2022/08/21 05:02:32;;;;;;;28.90;9.93;;;14.40;99.90;;;;;;5021055;28;20053;-76
2022/08/21 05:04:59;;;;;;;46.08;11.50;;;14.70;99.90;;;;;;5008340;28;20441;-76
2022/08/21 05:07:29;;;;;;;133.20;13.00;;;15.10;99.90;;;;;;5025639;28;20025;-77
2022/08/21 05:09:55;;;;;;;191.65;15.75;;;14.90;99.90;;;;;;5017601;28;20026;-74
2022/08/21 05:12:21;;;;;;;355.70;21.15;;;14.90;99.90;;;;;;5019244;28;20506;-75
2022/08/21 05:14:47;;;;;;;136.02;14.68;;;15.10;99.90;;;;;;5026011;28;20099;-75
2022/08/21 05:17:13;;;;;;;106.30;14.57;;;15.00;99.90;;;;;;5014294;28;20551;-75
2022/08/21 05:19:39;;;;;;;410.52;24.67;;;15.10;99.90;;;;;;5030120;28;20491;-75
2022/08/21 05:22:05;;;;;;;256.27;17.75;;;15.10;99.90;;;;;;5028345;28;20029;-76
2022/08/21 05:24:31;;;;;;;137.40;14.23;;;15.10;99.90;;;;;;5013573;28;20033;-76
2022/08/21 05:26:56;;;;;;;162.40;14.45;;;14.90;99.90;;;;;;5013823;28;20030;-74
2022/08/21 05:29:22;;;;;;;90.20;12.38;;;15.00;99.90;;;;;;5017784;28;20108;-75
2022/08/21 05:31:48;;;;;;;241.95;17.90;;;15.50;99.90;;;;;;5014145;28;20499;-77
2022/08/21 05:34:18;;;;;;;160.15;12.25;;;15.10;99.90;;;;;;5023089;28;20037;-78
2022/08/21 05:36:44;;;;;;;63.05;11.50;;;15.10;99.90;;;;;;5018932;28;20033;-78
2022/08/21 05:39:10;;;;;;;252.52;16.17;;;15.20;99.90;;;;;;5012432;28;20029;-76
2022/08/21 05:41:36;;;;;;;264.48;17.02;;;15.10;99.90;;;;;;5009568;28;20370;-76
2022/08/21 05:44:02;;;;;;;183.60;14.32;;;15.10;99.90;;;;;;5005788;28;20026;-77
2022/08/21 05:46:27;;;;;;;251.68;18.38;;;15.10;99.90;;;;;;5026866;28;20507;-77
2022/08/21 05:48:53;;;;;;;176.40;15.88;;;15.10;99.90;;;;;;5013933;28;20018;-77
2022/08/21 05:51:19;;;;;;;72.85;13.00;;;15.00;99.90;;;;;;5025461;28;20044;-77
2022/08/21 05:53:45;;;;;;;139.23;13.93;;;15.10;99.90;;;;;;5012542;28;20036;-75
2022/08/21 05:56:12;;;;;;;587.55;28.92;;;15.20;99.90;;;;;;5014857;28;20116;-77
2022/08/21 05:58:38;;;;;;;479.30;23.73;;;15.30;99.90;;;;;;5012150;28;20034;-77
2022/08/21 06:01:04;;;;;;;541.78;25.13;;;15.20;99.90;;;;;;5013797;28;20136;-76
2022/08/21 06:03:33;;;;;;;284.55;20.40;;;15.30;99.90;;;;;;5020207;28;20036;-76
2022/08/21 06:05:59;;;;;;;504.13;28.95;;;15.40;99.90;;;;;;4991632;22;20043;-76
2022/08/21 06:08:25;;;;;;;335.70;28.88;;;15.20;99.90;;;;;;4974433;28;20027;-76
2022/08/21 06:10:52;;;;;;;477.08;30.92;;;15.30;99.90;;;;;;4974175;28;20396;-76
2022/08/21 06:13:19;;;;;;;211.30;19.40;;;15.20;99.90;;;;;;4974210;28;20035;-76
2022/08/21 06:15:45;;;;;;;86.63;15.05;;;15.00;99.90;;;;;;4973932;28;20031;-76
2022/08/21 06:18:11;;;;;;;331.13;19.10;;;15.40;99.90;;;;;;4956669;28;20026;-76
2022/08/21 06:20:37;;;;;;;219.20;17.25;;;15.60;99.90;;;;;;4956648;28;20496;-76
2022/08/21 06:23:03;;;;;;;225.02;17.20;;;15.70;99.90;;;;;;4956532;28;20034;-76
2022/08/21 06:25:29;;;;;;;449.85;24.05;;;15.70;99.90;;;;;;4956452;28;20118;-76
2022/08/21 06:28:05;;;;;;;235.07;17.70;;;15.60;99.90;;;;;;4956383;28;20106;-76
2022/08/21 06:30:30;;;;;;;219.45;17.17;;;15.70;99.90;;;;;;4956327;28;20023;-76
2022/08/21 06:32:57;;;;;;;345.23;18.52;;;15.70;99.90;;;;;;4956240;28;20022;-77
2022/08/21 06:35:24;;;;;;;207.52;16.60;;;15.70;99.90;;;;;;4973209;28;20023;-76
2022/08/21 06:37:50;;;;;;;469.38;22.90;;;15.70;99.90;;;;;;4973548;28;20023;-76
2022/08/21 06:40:15;;;;;;;295.80;18.50;;;15.80;99.90;;;;;;4956298;28;20081;-75
2022/08/21 06:42:41;;;;;;;334.30;19.85;;;15.80;99.90;;;;;;4973610;28;20023;-76
2022/08/21 06:45:07;;;;;;;201.82;13.23;;;15.70;99.90;;;;;;5015827;23;20044;-76
2022/08/21 06:47:32;;;;;;;312.98;17.42;;;15.60;99.90;;;;;;5021209;28;20558;-76
2022/08/21 06:49:58;;;;;;;207.57;14.38;;;15.80;99.90;;;;;;5025701;28;20080;-76
2022/08/21 06:52:23;;;;;;;319.65;17.65;;;15.90;99.90;;;;;;5022909;28;20030;-76
2022/08/21 06:54:49;;;;;;;242.57;19.42;;;15.70;99.90;;;;;;5009472;28;20025;-75
2022/08/21 06:57:15;;;;;;;106.25;11.98;;;16.00;99.90;;;;;;5001917;28;20022;-76
2022/08/21 06:59:41;;;;;;;77.18;11.32;;;16.00;99.90;;;;;;4996752;28;20018;-76
2022/08/21 07:02:07;;;;;;;154.27;14.07;;;16.10;99.90;;;;;;5012491;28;20040;-75
2022/08/21 07:04:33;;;;;;;169.38;13.68;;;16.10;99.90;;;;;;4998976;28;20026;-75
2022/08/21 07:06:59;;;;;;;144.70;14.82;;;16.00;99.90;;;;;;5000160;28;20036;-75
2022/08/21 07:09:24;;;;;;;124.05;13.43;;;16.10;99.90;;;;;;5004489;28;20018;-75
2022/08/21 07:11:53;;;;;;;65.13;11.07;;;16.10;99.90;;;;;;5003041;28;20753;-75
2022/08/21 07:14:19;;;;;;;32.20;7.75;;;16.10;99.90;;;;;;4997503;28;20030;-75
2022/08/21 07:16:44;;;;;;;52.72;9.73;;;16.30;99.90;;;;;;5000959;28;20508;-75
2022/08/21 07:19:10;;;;;;;77.07;10.93;;;16.40;99.90;;;;;;5005618;28;20522;-76
2022/08/21 07:21:35;;;;;;;57.85;10.23;;;16.60;99.90;;;;;;5002945;28;20030;-75
2022/08/21 07:24:01;;;;;;;71.45;11.85;;;16.50;99.90;;;;;;4998679;28;20033;-75
2022/08/21 07:26:27;;;;;;;25.48;10.23;;;16.60;99.90;;;;;;5001718;28;20054;-75
2022/08/21 07:28:53;;;;;;;139.93;14.38;;;16.70;99.90;;;;;;4995158;28;20030;-75
2022/08/21 07:31:21;;;;;;;39.78;12.70;;;16.60;99.90;;;;;;5001878;28;20030;-75
2022/08/21 07:33:47;;;;;;;47.63;12.43;;;16.50;99.90;;;;;;5004287;28;20104;-75
2022/08/21 07:39:48;;;;;;;23.88;12.63;;;16.70;99.90;;;;;;4164625;26;20494;-75
2022/08/21 07:42:15;;;;;;;37.13;15.50;;;16.90;99.90;;;;;;5023696;28;20037;-75
2022/08/21 07:48:43;;;;;;;31.13;14.68;;;16.50;99.90;;;;;;4987447;28;20400;-76
2022/08/21 07:51:33;;;;;;;28.17;15.55;;;16.30;99.90;;;;;;4963848;28;20034;-75
2022/08/21 07:54:22;;;;;;;24.75;15.00;;;16.40;99.90;;;;;;4989524;28;20038;-75
2022/08/21 07:57:32;;;;;;;17.83;13.40;;;16.40;99.90;;;;;;4989552;28;20035;-75
2022/08/21 08:00:31;;;;;;;18.85;14.50;;;16.60;99.90;;;;;;5003959;28;20045;-75
2022/08/21 08:03:31;;;;;;;18.45;13.73;;;16.90;99.90;;;;;;5042998;28;20044;-75
2022/08/21 08:06:12;;;;;;;15.85;14.07;;;17.00;99.90;;;;;;4963799;28;20065;-75
2022/08/21 08:09:04;;;;;;;15.43;13.35;;;17.00;99.90;;;;;;5022619;28;20075;-75
2022/08/21 08:11:30;;;;;;;17.90;14.30;;;17.40;99.90;;;;;;4965051;28;20583;-75
2022/08/21 08:13:57;;;;;;;17.75;14.40;;;17.10;99.90;;;;;;5066910;28;20068;-76
2022/08/21 08:16:22;;;;;;;21.60;15.35;;;16.90;99.90;;;;;;5040931;28;20025;-76
2022/08/21 08:18:48;;;;;;;20.33;15.65;;;17.00;99.90;;;;;;5056227;28;20067;-76
2022/08/21 08:21:14;;;;;;;22.42;16.20;;;17.00;99.90;;;;;;5045469;28;20031;-76
2022/08/21 08:23:40;;;;;;;19.17;15.35;;;17.00;99.90;;;;;;5065051;28;20102;-76
2022/08/21 08:26:05;;;;;;;19.92;15.73;;;17.10;99.90;;;;;;5063500;28;20483;-75
2022/08/21 08:28:32;;;;;;;19.95;16.42;;;17.20;99.90;;;;;;5064484;28;20020;-76
2022/08/21 08:30:59;;;;;;;19.65;15.90;;;17.10;99.90;;;;;;5054711;28;20360;-75
2022/08/21 08:33:26;;;;;;;19.67;15.35;;;17.10;99.90;;;;;;5050094;28;20048;-75
2022/08/21 08:35:52;;;;;;;18.65;16.40;;;17.30;99.90;;;;;;5044096;28;20056;-75
2022/08/21 08:38:19;;;;;;;20.63;16.48;;;17.50;99.90;;;;;;5074338;28;20059;-75
2022/08/21 08:41:06;;;;;;;17.90;15.63;;;17.60;99.90;;;;;;5074577;28;20025;-75
2022/08/21 08:43:34;;;;;;;19.45;16.98;;;17.60;99.90;;;;;;5056215;28;20033;-75
2022/08/21 08:46:04;;;;;;;19.52;16.40;;;17.50;99.90;;;;;;5054106;28;20025;-75
2022/08/21 08:48:55;;;;;;;20.10;15.80;;;17.60;99.90;;;;;;5054682;28;20112;-75
2022/08/21 08:51:51;;;;;;;19.08;16.02;;;17.90;99.90;;;;;;5047594;28;20067;-75
2022/08/21 08:54:38;;;;;;;20.33;16.17;;;18.00;99.90;;;;;;5043296;28;20037;-75
2022/08/21 08:57:09;;;;;;;18.00;15.93;;;18.10;99.90;;;;;;5030988;28;20037;-75
2022/08/21 08:59:40;;;;;;;15.98;14.02;;;18.20;99.90;;;;;;5042684;28;20031;-74
2022/08/21 09:02:06;;;;;;;32.45;14.73;;;18.20;99.90;;;;;;5063931;28;20067;-75
2022/08/21 09:04:32;;;;;;;16.58;14.73;;;18.20;99.90;;;;;;5067316;28;20048;-75
2022/08/21 09:07:38;;;;;;;17.50;14.02;;;18.80;99.90;;;;;;5046011;28;20016;-75
2022/08/21 09:10:39;;;;;;;19.20;15.15;;;18.90;99.90;;;;;;5009656;28;20409;-74
2022/08/21 09:13:16;;;;;;;18.30;15.02;;;18.60;99.90;;;;;;5030111;28;20057;-75
2022/08/21 09:15:58;;;;;;;15.77;13.95;;;18.70;99.90;;;;;;5041104;28;20032;-75
2022/08/21 09:18:35;;;;;;;17.23;14.93;;;19.20;99.90;;;;;;5062537;28;20099;-75
2022/08/21 09:21:20;;;;;;;16.40;14.32;;;19.10;99.90;;;;;;5066932;28;20123;-75
2022/08/21 09:23:48;;;;;;;15.68;13.38;;;19.30;99.90;;;;;;5066986;28;20389;-75
2022/08/21 09:26:20;;;;;;;15.48;13.88;;;19.30;99.90;;;;;;5061980;28;20077;-75
2022/08/21 09:28:50;;;;;;;17.30;14.25;;;19.20;99.90;;;;;;5059301;28;20039;-75
2022/08/21 09:31:21;;;;;;;14.57;13.07;;;19.50;99.90;;;;;;5045271;28;20029;-75
2022/08/21 09:33:47;;;;;;;15.35;13.65;;;19.70;99.90;;;;;;5053230;28;20029;-75
2022/08/21 09:36:28;;;;;;;14.38;12.88;;;19.20;99.90;;;;;;5063952;28;20490;-75
2022/08/21 09:38:54;;;;;;;14.75;13.25;;;19.50;99.90;;;;;;5053642;28;20036;-75
2022/08/21 09:41:30;;;;;;;16.92;14.65;;;19.50;99.90;;;;;;5065915;28;20021;-75
2022/08/21 09:43:56;;;;;;;;;;;19.50;99.90;;;;;;5048773;28;20375;-75
2022/08/21 09:46:25;;;;;;;17.08;15.27;;;19.50;99.90;;;;;;5041791;28;19904;-75
2022/08/21 09:48:53;;;;;;;15.00;13.25;;;19.40;99.90;;;;;;5064996;28;20029;-75
2022/08/21 09:51:34;;;;;;;16.65;14.85;;;19.40;99.90;;;;;;5066426;28;20016;-75
2022/08/21 09:54:06;;;;;;;15.68;14.07;;;19.20;99.90;;;;;;5045280;28;20029;-76
2022/08/21 09:59:30;;;;;;;16.95;15.15;;;19.20;99.90;;;;;;5059567;28;20032;-76
2022/08/21 10:01:59;;;;;;;17.58;15.65;;;19.40;99.90;;;;;;5069902;28;20059;-75
2022/08/21 10:04:30;;;;;;;15.75;14.23;;;18.90;99.90;;;;;;5038798;28;20033;-76
2022/08/21 10:07:07;;;;;;;16.85;14.10;;;19.10;99.90;;;;;;5052593;28;20108;-76
2022/08/21 10:09:33;;;;;;;18.25;15.20;;;19.60;99.90;;;;;;5054726;28;20100;-76
2022/08/21 10:12:23;;;;;;;15.25;13.75;;;19.40;99.90;;;;;;5063854;28;20103;-76
2022/08/21 10:14:48;;;;;;;15.30;13.77;;;19.60;99.90;;;;;;5030304;28;20033;-76
2022/08/21 10:17:43;;;;;;;14.95;13.48;;;19.70;99.90;;;;;;5059042;28;20036;-76
2022/08/21 10:20:21;;;;;;;16.73;13.55;;;19.70;99.90;;;;;;5060769;28;20025;-76
2022/08/21 10:23:12;;;;;;;13.90;12.45;;;19.80;99.90;;;;;;5046326;28;20025;-76
2022/08/21 10:25:53;;;;;;;11.93;10.75;;;20.20;99.90;;;;;;5058784;28;20036;-76
2022/08/21 10:28:40;;;;;;;12.05;10.77;;;20.50;99.90;;;;;;5059697;28;20558;-76
2022/08/21 10:31:24;;;;;;;;;;;20.80;99.90;;;;;;5041072;28;20032;-76
2022/08/21 10:34:09;;;;;;;12.65;10.82;;;20.90;99.90;;;;;;5056160;28;19949;-76
2022/08/21 10:37:02;;;;;;;11.50;10.40;;;21.10;99.90;;;;;;5058715;28;20029;-76
2022/08/21 10:39:50;;;;;;;12.10;10.90;;;21.00;99.90;;;;;;5043190;28;20441;-76
2022/08/21 10:42:38;;;;;;;11.00;9.85;;;20.90;99.90;;;;;;5025152;28;20087;-75
2022/08/21 10:45:15;;;;;;;10.70;9.60;;;21.00;99.90;;;;;;5063048;28;20020;-76
2022/08/21 10:47:50;;;;;;;11.02;9.50;;;21.10;99.90;;;;;;5060228;28;20025;-76
2022/08/21 10:50:22;;;;;;;9.75;8.85;;;21.10;99.90;;;;;;5061572;28;20453;-76
2022/08/21 10:53:15;;;;;;;9.30;8.40;;;21.30;99.90;;;;;;5064657;28;20486;-76
2022/08/21 10:55:47;;;;;;;7.97;7.15;;;21.70;99.90;;;;;;5052504;28;20089;-76
2022/08/21 10:58:38;;;;;;;7.20;6.50;;;22.20;99.90;;;;;;5053693;28;20021;-76
2022/08/21 11:01:11;;;;;;;7.00;6.40;;;22.10;99.90;;;;;;5052286;28;20037;-76
2022/08/21 11:03:43;;;;;;;7.05;6.43;;;22.20;99.90;;;;;;5062806;28;20025;-76
2022/08/21 11:06:14;;;;;;;7.72;7.00;;;22.40;99.90;;;;;;5047088;28;20032;-76
2022/08/21 11:08:45;;;;;;;7.35;6.05;;;22.60;99.90;;;;;;5044161;28;20021;-76
2022/08/21 11:11:29;;;;;;;6.93;5.90;;;23.00;99.90;;;;;;5058216;28;20024;-76
2022/08/21 11:14:02;;;;;;;6.72;6.10;;;23.20;99.90;;;;;;5058264;28;20106;-77
2022/08/21 11:16:31;;;;;;;8.02;5.72;;;23.00;99.90;;;;;;5027072;28;20045;-79
2022/08/21 11:19:02;;;;;;;8.00;5.95;;;23.10;99.90;;;;;;5053742;28;20033;-79
2022/08/21 11:21:43;;;;;;;9.75;6.60;;;23.10;99.90;;;;;;5067745;28;20025;-79
2022/08/21 11:24:30;;;;;;;9.77;7.53;;;23.00;99.90;;;;;;5061214;28;20021;-78
2022/08/21 11:27:06;;;;;;;8.18;6.75;;;23.00;99.90;;;;;;5058107;28;20055;-79
2022/08/21 11:29:36;;;;;;;8.07;7.20;;;23.20;99.90;;;;;;5052598;28;20079;-79
2022/08/21 11:32:13;;;;;;;7.40;6.35;;;23.00;99.90;;;;;;5055354;28;20078;-79
2022/08/21 11:34:59;;;;;;;7.45;6.75;;;23.40;99.90;;;;;;5052652;28;20021;-79
2022/08/21 11:37:36;;;;;;;7.07;5.97;;;23.60;99.90;;;;;;5046972;28;20029;-79
2022/08/21 11:40:08;;;;;;;6.97;6.28;;;24.10;99.90;;;;;;5060029;28;20021;-79
2022/08/21 11:42:43;;;;;;;7.55;5.93;;;24.20;99.90;;;;;;5049858;28;20036;-78
2022/08/21 11:45:18;;;;;;;5.68;5.07;;;24.60;99.90;;;;;;5053665;28;20088;-77
2022/08/21 11:48:07;;;;;;;7.38;5.30;;;24.20;99.90;;;;;;5050987;28;20025;-77
2022/08/21 11:50:37;;;;;;;5.68;5.15;;;24.20;99.90;;;;;;5039844;28;20032;-77
2022/08/21 11:53:23;;;;;;;6.22;4.90;;;24.20;99.90;;;;;;5053986;28;20024;-77
2022/08/21 11:55:58;;;;;;;7.82;5.45;;;24.30;99.90;;;;;;5033820;28;20021;-76
2022/08/21 11:58:33;;;;;;;6.40;5.80;;;24.30;99.90;;;;;;5057185;28;20024;-76
2022/08/21 12:01:29;;;;;;;6.63;5.25;;;24.20;99.90;;;;;;5038783;28;20021;-76
2022/08/21 12:04:06;;;;;;;5.22;4.70;;;25.00;99.90;;;;;;5060452;28;20120;-77
2022/08/21 12:06:36;;;;;;;5.68;5.18;;;25.00;99.90;;;;;;5041568;28;20106;-76
2022/08/21 12:09:24;;;;;;;6.72;4.70;;;24.90;99.90;;;;;;5054790;28;20029;-76
2022/08/21 12:12:02;;;;;;;5.78;4.97;;;25.00;99.90;;;;;;5050708;28;20037;-76
2022/08/21 12:14:49;;;;;;;6.53;5.07;;;25.10;99.90;;;;;;5043259;28;20028;-76
2022/08/21 12:17:24;;;;;;;9.27;5.15;;;25.20;99.90;;;;;;5059637;28;20021;-77
2022/08/21 12:20:14;;;;;;;6.17;4.73;;;25.50;99.90;;;;;;5054646;28;20099;-77
2022/08/21 12:22:41;;;;;;;5.40;4.90;;;25.60;99.90;;;;;;5054820;28;20071;-76
2022/08/21 12:25:15;;;;;;;5.45;4.80;;;25.50;99.90;;;;;;5067364;28;20028;-76
2022/08/21 12:27:53;;;;;;;5.53;4.80;;;26.00;99.90;;;;;;5041839;28;20063;-76
2022/08/21 12:30:27;;;;;;;5.78;4.95;;;26.10;99.90;;;;;;5057259;28;20029;-76
2022/08/21 12:33:03;;;;;;;6.47;5.00;;;26.50;99.90;;;;;;5046094;28;20025;-76
2022/08/21 12:35:49;;;;;;;5.38;4.50;;;26.20;99.90;;;;;;5072881;28;20031;-76
2022/08/21 12:38:48;;;;;;;4.82;4.40;;;26.10;99.90;;;;;;5041805;28;20099;-77
2022/08/21 12:41:22;;;;;;;5.40;4.90;;;26.50;99.90;;;;;;5053336;28;20044;-76
2022/08/21 12:43:54;;;;;;;5.05;4.60;;;27.00;99.90;;;;;;5056181;28;20398;-76
2022/08/21 12:46:26;;;;;;;5.07;4.40;;;26.90;99.90;;;;;;5054027;28;20028;-76
2022/08/21 12:48:57;;;;;;;5.60;4.60;;;27.50;99.90;;;;;;5049580;28;20016;-76
2022/08/21 12:51:28;;;;;;;4.63;4.22;;;27.60;99.90;;;;;;5058163;28;20651;-76
2022/08/21 12:53:56;;;;;;;4.65;4.13;;;27.60;99.90;;;;;;5062102;28;20031;-76
2022/08/21 12:56:24;;;;;;;4.93;4.18;;;27.80;99.90;;;;;;5070556;28;20100;-76
2022/08/21 12:58:54;;;;;;;4.65;3.90;;;28.50;99.90;;;;;;5063347;28;20020;-76